sensor_id;sensor_type;location;lat;lon;timestamp;P1;durP1;ratioP1;P2;durP2;ratioP2
16737;SDS011;17906;47.684;10.806;2022-11-11T00:00:57;2.43;;;1.73;;
16737;SDS011;17906;47.684;10.806;2022-11-11T00:03:25;1.97;;;1.13;;
16737;SDS011;17906;47.684;10.806;2022-11-11T00:05:51;2.70;;;1.53;;
16737;SDS011;17906;47.684;10.806;2022-11-11T00:08:18;3.50;;;1.80;;
16737;SDS011;17906;47.684;10.806;2022-11-11T00:10:47;6.00;;;2.03;;
16737;SDS011;17906;47.684;10.806;2022-11-11T00:13:14;11.93;;;2.20;;
16737;SDS011;17906;47.684;10.806;2022-11-11T00:15:40;3.90;;;2.00;;
16737;SDS011;17906;47.684;10.806;2022-11-11T00:18:08;22.33;;;2.30;;
16737;SDS011;17906;47.684;10.806;2022-11-11T00:20:56;22.57;;;2.30;;
16737;SDS011;17906;47.684;10.806;2022-11-11T00:23:40;4.43;;;1.77;;
16737;SDS011;17906;47.684;10.806;2022-11-11T00:26:26;18.47;;;2.00;;
16737;SDS011;17906;47.684;10.806;2022-11-11T00:28:52;4.13;;;1.77;;
16737;SDS011;17906;47.684;10.806;2022-11-11T00:31:19;3.20;;;1.80;;
16737;SDS011;17906;47.684;10.806;2022-11-11T00:33:46;3.43;;;1.90;;
16737;SDS011;17906;47.684;10.806;2022-11-11T00:36:12;3.47;;;2.00;;
16737;SDS011;17906;47.684;10.806;2022-11-11T00:38:38;3.77;;;2.17;;
16737;SDS011;17906;47.684;10.806;2022-11-11T00:41:14;5.77;;;1.90;;
16737;SDS011;17906;47.684;10.806;2022-11-11T00:43:44;16.97;;;2.47;;
16737;SDS011;17906;47.684;10.806;2022-11-11T00:46:11;13.07;;;2.50;;
16737;SDS011;17906;47.684;10.806;2022-11-11T00:48:57;25.83;;;2.80;;
16737;SDS011;17906;47.684;10.806;2022-11-11T00:51:41;30.87;;;2.50;;
16737;SDS011;17906;47.684;10.806;2022-11-11T00:54:08;45.83;;;3.70;;
16737;SDS011;17906;47.684;10.806;2022-11-11T00:56:35;31.70;;;2.57;;
16737;SDS011;17906;47.684;10.806;2022-11-11T00:59:03;8.30;;;1.80;;
16737;SDS011;17906;47.684;10.806;2022-11-11T01:01:31;47.57;;;3.40;;
16737;SDS011;17906;47.684;10.806;2022-11-11T01:03:58;53.10;;;3.60;;
16737;SDS011;17906;47.684;10.806;2022-11-11T01:06:26;68.53;;;3.70;;
16737;SDS011;17906;47.684;10.806;2022-11-11T01:08:53;50.47;;;7.07;;
16737;SDS011;17906;47.684;10.806;2022-11-11T01:11:20;13.83;;;2.03;;
16737;SDS011;17906;47.684;10.806;2022-11-11T01:13:48;26.00;;;2.97;;
16737;SDS011;17906;47.684;10.806;2022-11-11T01:16:17;12.33;;;2.07;;
16737;SDS011;17906;47.684;10.806;2022-11-11T01:18:45;15.93;;;2.27;;
16737;SDS011;17906;47.684;10.806;2022-11-11T01:21:12;8.27;;;2.00;;
16737;SDS011;17906;47.684;10.806;2022-11-11T01:23:41;4.90;;;1.90;;
16737;SDS011;17906;47.684;10.806;2022-11-11T01:26:10;4.83;;;1.90;;
16737;SDS011;17906;47.684;10.806;2022-11-11T01:28:39;5.13;;;1.93;;
16737;SDS011;17906;47.684;10.806;2022-11-11T01:31:07;4.90;;;1.70;;
16737;SDS011;17906;47.684;10.806;2022-11-11T01:33:37;4.63;;;1.67;;
16737;SDS011;17906;47.684;10.806;2022-11-11T01:36:05;4.33;;;2.00;;
16737;SDS011;17906;47.684;10.806;2022-11-11T01:38:34;8.47;;;2.30;;
16737;SDS011;17906;47.684;10.806;2022-11-11T01:41:02;3.93;;;1.70;;
16737;SDS011;17906;47.684;10.806;2022-11-11T01:43:50;3.27;;;1.60;;
16737;SDS011;17906;47.684;10.806;2022-11-11T01:46:23;5.73;;;1.53;;
16737;SDS011;17906;47.684;10.806;2022-11-11T01:48:55;6.10;;;1.87;;
16737;SDS011;17906;47.684;10.806;2022-11-11T01:51:50;24.93;;;2.40;;
16737;SDS011;17906;47.684;10.806;2022-11-11T01:54:21;4.47;;;1.63;;
16737;SDS011;17906;47.684;10.806;2022-11-11T01:56:56;8.07;;;1.70;;
16737;SDS011;17906;47.684;10.806;2022-11-11T01:59:27;21.70;;;3.47;;
16737;SDS011;17906;47.684;10.806;2022-11-11T02:01:57;2.03;;;1.40;;
16737;SDS011;17906;47.684;10.806;2022-11-11T02:04:25;3.20;;;1.40;;
16737;SDS011;17906;47.684;10.806;2022-11-11T02:07:10;2.80;;;1.13;;
16737;SDS011;17906;47.684;10.806;2022-11-11T02:09:38;7.80;;;1.43;;
16737;SDS011;17906;47.684;10.806;2022-11-11T02:12:08;3.27;;;1.80;;
16737;SDS011;17906;47.684;10.806;2022-11-11T02:14:53;3.07;;;1.37;;
16737;SDS011;17906;47.684;10.806;2022-11-11T02:17:24;3.77;;;1.40;;
16737;SDS011;17906;47.684;10.806;2022-11-11T02:19:54;7.17;;;1.50;;
16737;SDS011;17906;47.684;10.806;2022-11-11T02:22:24;3.00;;;1.63;;
16737;SDS011;17906;47.684;10.806;2022-11-11T02:25:09;2.77;;;1.47;;
16737;SDS011;17906;47.684;10.806;2022-11-11T02:27:38;1.67;;;1.10;;
16737;SDS011;17906;47.684;10.806;2022-11-11T02:30:08;4.87;;;1.70;;
16737;SDS011;17906;47.684;10.806;2022-11-11T02:32:39;2.73;;;1.60;;
16737;SDS011;17906;47.684;10.806;2022-11-11T02:35:10;4.50;;;1.50;;
16737;SDS011;17906;47.684;10.806;2022-11-11T02:37:39;4.57;;;1.20;;
16737;SDS011;17906;47.684;10.806;2022-11-11T02:40:10;5.87;;;1.20;;
16737;SDS011;17906;47.684;10.806;2022-11-11T02:42:39;3.00;;;1.40;;
16737;SDS011;17906;47.684;10.806;2022-11-11T02:45:05;21.60;;;1.50;;
16737;SDS011;17906;47.684;10.806;2022-11-11T02:47:32;13.70;;;1.47;;
16737;SDS011;17906;47.684;10.806;2022-11-11T02:49:59;10.97;;;1.60;;
16737;SDS011;17906;47.684;10.806;2022-11-11T02:52:25;8.07;;;1.50;;
16737;SDS011;17906;47.684;10.806;2022-11-11T02:54:52;9.73;;;1.70;;
16737;SDS011;17906;47.684;10.806;2022-11-11T02:57:20;8.83;;;1.63;;
16737;SDS011;17906;47.684;10.806;2022-11-11T02:59:47;14.10;;;2.10;;
16737;SDS011;17906;47.684;10.806;2022-11-11T03:02:14;16.13;;;1.73;;
16737;SDS011;17906;47.684;10.806;2022-11-11T03:04:40;7.13;;;1.70;;
16737;SDS011;17906;47.684;10.806;2022-11-11T03:07:07;10.03;;;1.80;;
16737;SDS011;17906;47.684;10.806;2022-11-11T03:09:34;6.97;;;1.73;;
16737;SDS011;17906;47.684;10.806;2022-11-11T03:12:01;9.47;;;1.93;;
16737;SDS011;17906;47.684;10.806;2022-11-11T03:14:29;18.23;;;2.07;;
16737;SDS011;17906;47.684;10.806;2022-11-11T03:16:55;31.00;;;2.57;;
16737;SDS011;17906;47.684;10.806;2022-11-11T03:19:40;44.43;;;3.23;;
16737;SDS011;17906;47.684;10.806;2022-11-11T03:22:06;51.73;;;4.40;;
16737;SDS011;17906;47.684;10.806;2022-11-11T03:24:32;33.40;;;2.83;;
16737;SDS011;17906;47.684;10.806;2022-11-11T03:27:16;33.90;;;2.80;;
16737;SDS011;17906;47.684;10.806;2022-11-11T03:29:44;28.43;;;2.40;;
16737;SDS011;17906;47.684;10.806;2022-11-11T03:32:11;34.10;;;3.83;;
16737;SDS011;17906;47.684;10.806;2022-11-11T03:34:38;33.23;;;2.53;;
16737;SDS011;17906;47.684;10.806;2022-11-11T03:37:04;94.20;;;5.30;;
16737;SDS011;17906;47.684;10.806;2022-11-11T03:39:50;51.93;;;3.90;;
16737;SDS011;17906;47.684;10.806;2022-11-11T03:42:17;23.27;;;2.10;;
16737;SDS011;17906;47.684;10.806;2022-11-11T03:44:45;27.33;;;2.77;;
16737;SDS011;17906;47.684;10.806;2022-11-11T03:47:11;33.43;;;2.80;;
16737;SDS011;17906;47.684;10.806;2022-11-11T03:49:52;47.47;;;4.40;;
16737;SDS011;17906;47.684;10.806;2022-11-11T03:52:19;18.80;;;2.03;;
16737;SDS011;17906;47.684;10.806;2022-11-11T03:54:45;36.77;;;2.67;;
16737;SDS011;17906;47.684;10.806;2022-11-11T03:57:12;18.73;;;2.37;;
16737;SDS011;17906;47.684;10.806;2022-11-11T03:59:54;23.47;;;3.60;;
16737;SDS011;17906;47.684;10.806;2022-11-11T04:02:20;12.60;;;1.50;;
16737;SDS011;17906;47.684;10.806;2022-11-11T04:05:01;8.87;;;1.77;;
16737;SDS011;17906;47.684;10.806;2022-11-11T04:07:46;3.53;;;1.40;;
16737;SDS011;17906;47.684;10.806;2022-11-11T04:10:30;1.77;;;1.07;;
16737;SDS011;17906;47.684;10.806;2022-11-11T04:12:57;2.03;;;1.00;;
16737;SDS011;17906;47.684;10.806;2022-11-11T04:15:44;2.57;;;1.07;;
16737;SDS011;17906;47.684;10.806;2022-11-11T04:18:24;1.93;;;1.00;;
16737;SDS011;17906;47.684;10.806;2022-11-11T04:21:06;2.43;;;1.20;;
16737;SDS011;17906;47.684;10.806;2022-11-11T04:23:50;1.73;;;1.00;;
16737;SDS011;17906;47.684;10.806;2022-11-11T04:26:17;2.50;;;1.20;;
16737;SDS011;17906;47.684;10.806;2022-11-11T04:28:43;2.43;;;1.30;;
16737;SDS011;17906;47.684;10.806;2022-11-11T04:31:28;3.27;;;1.30;;
16737;SDS011;17906;47.684;10.806;2022-11-11T04:33:55;3.93;;;1.93;;
16737;SDS011;17906;47.684;10.806;2022-11-11T04:36:20;8.70;;;3.30;;
16737;SDS011;17906;47.684;10.806;2022-11-11T04:38:47;10.87;;;3.27;;
16737;SDS011;17906;47.684;10.806;2022-11-11T04:41:31;7.97;;;1.90;;
16737;SDS011;17906;47.684;10.806;2022-11-11T04:43:58;1.83;;;1.20;;
16737;SDS011;17906;47.684;10.806;2022-11-11T04:46:44;3.53;;;1.17;;
16737;SDS011;17906;47.684;10.806;2022-11-11T04:49:10;1.57;;;1.00;;
16737;SDS011;17906;47.684;10.806;2022-11-11T04:51:37;2.27;;;1.20;;
16737;SDS011;17906;47.684;10.806;2022-11-11T04:54:21;4.40;;;1.83;;
16737;SDS011;17906;47.684;10.806;2022-11-11T04:56:47;13.70;;;2.97;;
16737;SDS011;17906;47.684;10.806;2022-11-11T04:59:14;13.13;;;2.77;;
16737;SDS011;17906;47.684;10.806;2022-11-11T05:01:41;65.73;;;4.37;;
16737;SDS011;17906;47.684;10.806;2022-11-11T05:04:41;17.17;;;2.50;;
16737;SDS011;17906;47.684;10.806;2022-11-11T05:07:08;11.57;;;2.30;;
16737;SDS011;17906;47.684;10.806;2022-11-11T05:09:58;29.53;;;3.03;;
16737;SDS011;17906;47.684;10.806;2022-11-11T05:12:24;14.67;;;2.97;;
16737;SDS011;17906;47.684;10.806;2022-11-11T05:14:51;14.00;;;2.93;;
16737;SDS011;17906;47.684;10.806;2022-11-11T05:17:35;20.67;;;3.13;;
16737;SDS011;17906;47.684;10.806;2022-11-11T05:20:21;50.50;;;4.23;;
16737;SDS011;17906;47.684;10.806;2022-11-11T05:23:05;19.17;;;3.90;;
16737;SDS011;17906;47.684;10.806;2022-11-11T05:25:32;21.53;;;2.80;;
16737;SDS011;17906;47.684;10.806;2022-11-11T05:28:00;29.27;;;5.17;;
16737;SDS011;17906;47.684;10.806;2022-11-11T05:30:27;29.43;;;3.37;;
16737;SDS011;17906;47.684;10.806;2022-11-11T05:32:53;14.60;;;3.03;;
16737;SDS011;17906;47.684;10.806;2022-11-11T05:35:22;29.57;;;4.83;;
16737;SDS011;17906;47.684;10.806;2022-11-11T05:37:49;29.40;;;2.83;;
16737;SDS011;17906;47.684;10.806;2022-11-11T05:40:29;26.80;;;3.10;;
16737;SDS011;17906;47.684;10.806;2022-11-11T05:42:56;11.90;;;2.60;;
16737;SDS011;17906;47.684;10.806;2022-11-11T05:45:22;4.87;;;2.37;;
16737;SDS011;17906;47.684;10.806;2022-11-11T05:47:49;3.70;;;2.17;;
16737;SDS011;17906;47.684;10.806;2022-11-11T05:50:15;6.10;;;2.00;;
16737;SDS011;17906;47.684;10.806;2022-11-11T05:52:47;4.07;;;1.87;;
16737;SDS011;17906;47.684;10.806;2022-11-11T05:55:14;4.87;;;2.97;;
16737;SDS011;17906;47.684;10.806;2022-11-11T05:57:40;10.43;;;5.93;;
16737;SDS011;17906;47.684;10.806;2022-11-11T06:00:08;6.27;;;3.70;;
16737;SDS011;17906;47.684;10.806;2022-11-11T06:02:35;11.63;;;4.50;;
16737;SDS011;17906;47.684;10.806;2022-11-11T06:05:02;3.47;;;2.07;;
16737;SDS011;17906;47.684;10.806;2022-11-11T06:07:29;4.77;;;2.47;;
16737;SDS011;17906;47.684;10.806;2022-11-11T06:09:56;3.73;;;2.10;;
16737;SDS011;17906;47.684;10.806;2022-11-11T06:12:43;2.13;;;1.27;;
16737;SDS011;17906;47.684;10.806;2022-11-11T06:15:24;4.43;;;1.40;;
16737;SDS011;17906;47.684;10.806;2022-11-11T06:17:50;4.30;;;1.47;;
16737;SDS011;17906;47.684;10.806;2022-11-11T06:20:17;2.33;;;1.13;;
16737;SDS011;17906;47.684;10.806;2022-11-11T06:22:43;2.40;;;1.20;;
16737;SDS011;17906;47.684;10.806;2022-11-11T06:25:23;2.13;;;1.30;;
16737;SDS011;17906;47.684;10.806;2022-11-11T06:28:08;2.03;;;1.20;;
16737;SDS011;17906;47.684;10.806;2022-11-11T06:30:36;4.17;;;1.50;;
16737;SDS011;17906;47.684;10.806;2022-11-11T06:33:03;3.13;;;1.63;;
16737;SDS011;17906;47.684;10.806;2022-11-11T06:35:31;2.67;;;1.47;;
16737;SDS011;17906;47.684;10.806;2022-11-11T06:37:58;4.33;;;1.70;;
16737;SDS011;17906;47.684;10.806;2022-11-11T06:40:26;4.60;;;1.87;;
16737;SDS011;17906;47.684;10.806;2022-11-11T06:42:54;4.07;;;2.43;;
16737;SDS011;17906;47.684;10.806;2022-11-11T06:45:21;4.50;;;2.40;;
16737;SDS011;17906;47.684;10.806;2022-11-11T06:47:48;5.33;;;2.80;;
16737;SDS011;17906;47.684;10.806;2022-11-11T06:50:15;5.87;;;2.80;;
16737;SDS011;17906;47.684;10.806;2022-11-11T06:52:42;8.33;;;4.13;;
16737;SDS011;17906;47.684;10.806;2022-11-11T06:55:09;6.77;;;2.77;;
16737;SDS011;17906;47.684;10.806;2022-11-11T06:57:38;3.53;;;2.30;;
16737;SDS011;17906;47.684;10.806;2022-11-11T07:00:05;5.20;;;2.90;;
16737;SDS011;17906;47.684;10.806;2022-11-11T07:02:32;9.23;;;4.40;;
16737;SDS011;17906;47.684;10.806;2022-11-11T07:04:59;8.30;;;4.13;;
16737;SDS011;17906;47.684;10.806;2022-11-11T07:07:26;9.13;;;4.13;;
16737;SDS011;17906;47.684;10.806;2022-11-11T07:09:53;8.07;;;4.13;;
16737;SDS011;17906;47.684;10.806;2022-11-11T07:12:20;10.30;;;4.73;;
16737;SDS011;17906;47.684;10.806;2022-11-11T07:14:48;9.27;;;4.40;;
16737;SDS011;17906;47.684;10.806;2022-11-11T07:17:15;8.57;;;4.17;;
16737;SDS011;17906;47.684;10.806;2022-11-11T07:19:45;8.80;;;4.60;;
16737;SDS011;17906;47.684;10.806;2022-11-11T07:22:12;9.23;;;3.67;;
16737;SDS011;17906;47.684;10.806;2022-11-11T07:24:39;6.40;;;3.53;;
16737;SDS011;17906;47.684;10.806;2022-11-11T07:27:06;8.03;;;4.17;;
16737;SDS011;17906;47.684;10.806;2022-11-11T07:29:33;8.10;;;4.90;;
16737;SDS011;17906;47.684;10.806;2022-11-11T07:32:01;8.20;;;4.80;;
16737;SDS011;17906;47.684;10.806;2022-11-11T07:34:28;8.27;;;4.80;;
16737;SDS011;17906;47.684;10.806;2022-11-11T07:36:54;11.10;;;5.20;;
16737;SDS011;17906;47.684;10.806;2022-11-11T07:39:21;9.27;;;4.53;;
16737;SDS011;17906;47.684;10.806;2022-11-11T07:41:48;11.17;;;5.17;;
16737;SDS011;17906;47.684;10.806;2022-11-11T07:44:14;8.03;;;4.87;;
16737;SDS011;17906;47.684;10.806;2022-11-11T07:46:41;8.30;;;4.10;;
16737;SDS011;17906;47.684;10.806;2022-11-11T07:49:09;6.17;;;3.77;;
16737;SDS011;17906;47.684;10.806;2022-11-11T07:51:36;6.33;;;3.63;;
16737;SDS011;17906;47.684;10.806;2022-11-11T07:54:03;6.43;;;3.97;;
16737;SDS011;17906;47.684;10.806;2022-11-11T07:56:30;7.90;;;4.60;;
16737;SDS011;17906;47.684;10.806;2022-11-11T07:58:56;7.30;;;4.33;;
16737;SDS011;17906;47.684;10.806;2022-11-11T08:01:23;9.60;;;5.10;;
16737;SDS011;17906;47.684;10.806;2022-11-11T08:03:50;9.93;;;4.67;;
16737;SDS011;17906;47.684;10.806;2022-11-11T08:06:18;11.77;;;5.40;;
16737;SDS011;17906;47.684;10.806;2022-11-11T08:08:46;6.83;;;4.70;;
16737;SDS011;17906;47.684;10.806;2022-11-11T08:11:13;10.13;;;5.03;;
16737;SDS011;17906;47.684;10.806;2022-11-11T08:13:41;7.47;;;4.40;;
16737;SDS011;17906;47.684;10.806;2022-11-11T08:16:08;6.00;;;4.43;;
16737;SDS011;17906;47.684;10.806;2022-11-11T08:18:36;5.60;;;4.00;;
16737;SDS011;17906;47.684;10.806;2022-11-11T08:21:03;6.33;;;3.63;;
16737;SDS011;17906;47.684;10.806;2022-11-11T08:23:32;8.97;;;3.20;;
16737;SDS011;17906;47.684;10.806;2022-11-11T08:25:59;5.33;;;3.50;;
16737;SDS011;17906;47.684;10.806;2022-11-11T08:28:26;6.07;;;3.60;;
16737;SDS011;17906;47.684;10.806;2022-11-11T08:30:54;5.93;;;3.00;;
16737;SDS011;17906;47.684;10.806;2022-11-11T08:33:23;4.40;;;3.03;;
16737;SDS011;17906;47.684;10.806;2022-11-11T08:35:50;6.37;;;2.90;;
16737;SDS011;17906;47.684;10.806;2022-11-11T08:38:18;6.03;;;3.07;;
16737;SDS011;17906;47.684;10.806;2022-11-11T08:40:46;4.23;;;2.87;;
16737;SDS011;17906;47.684;10.806;2022-11-11T08:43:13;4.57;;;2.47;;
16737;SDS011;17906;47.684;10.806;2022-11-11T08:45:39;6.63;;;2.20;;
16737;SDS011;17906;47.684;10.806;2022-11-11T08:48:06;3.60;;;2.27;;
16737;SDS011;17906;47.684;10.806;2022-11-11T08:50:35;4.70;;;2.70;;
16737;SDS011;17906;47.684;10.806;2022-11-11T08:53:05;4.23;;;2.00;;
16737;SDS011;17906;47.684;10.806;2022-11-11T08:55:33;2.27;;;1.60;;
16737;SDS011;17906;47.684;10.806;2022-11-11T08:58:02;4.23;;;2.10;;
16737;SDS011;17906;47.684;10.806;2022-11-11T09:00:30;4.13;;;1.87;;
16737;SDS011;17906;47.684;10.806;2022-11-11T09:02:59;3.47;;;1.63;;
16737;SDS011;17906;47.684;10.806;2022-11-11T09:05:27;2.87;;;1.70;;
16737;SDS011;17906;47.684;10.806;2022-11-11T09:07:53;2.70;;;1.67;;
16737;SDS011;17906;47.684;10.806;2022-11-11T09:10:20;2.27;;;1.40;;
16737;SDS011;17906;47.684;10.806;2022-11-11T09:12:46;3.03;;;1.60;;
16737;SDS011;17906;47.684;10.806;2022-11-11T09:15:14;4.40;;;1.40;;
16737;SDS011;17906;47.684;10.806;2022-11-11T09:17:45;2.40;;;1.60;;
16737;SDS011;17906;47.684;10.806;2022-11-11T09:20:12;2.20;;;1.57;;
16737;SDS011;17906;47.684;10.806;2022-11-11T09:22:40;2.60;;;1.93;;
16737;SDS011;17906;47.684;10.806;2022-11-11T09:25:08;3.63;;;2.00;;
16737;SDS011;17906;47.684;10.806;2022-11-11T09:27:35;2.77;;;1.87;;
16737;SDS011;17906;47.684;10.806;2022-11-11T09:30:01;4.10;;;2.10;;
16737;SDS011;17906;47.684;10.806;2022-11-11T09:32:30;2.93;;;2.20;;
16737;SDS011;17906;47.684;10.806;2022-11-11T09:34:57;2.97;;;2.20;;
16737;SDS011;17906;47.684;10.806;2022-11-11T09:37:24;4.07;;;2.70;;
16737;SDS011;17906;47.684;10.806;2022-11-11T09:39:51;3.93;;;2.53;;
16737;SDS011;17906;47.684;10.806;2022-11-11T09:42:24;5.30;;;2.27;;
16737;SDS011;17906;47.684;10.806;2022-11-11T09:47:49;3.17;;;2.10;;
16737;SDS011;17906;47.684;10.806;2022-11-11T09:50:25;5.60;;;3.00;;
16737;SDS011;17906;47.684;10.806;2022-11-11T09:52:56;6.43;;;3.00;;
16737;SDS011;17906;47.684;10.806;2022-11-11T09:55:29;7.20;;;3.43;;
16737;SDS011;17906;47.684;10.806;2022-11-11T09:58:02;7.97;;;3.97;;
16737;SDS011;17906;47.684;10.806;2022-11-11T10:00:32;4.97;;;3.07;;
16737;SDS011;17906;47.684;10.806;2022-11-11T10:03:04;4.17;;;2.33;;
16737;SDS011;17906;47.684;10.806;2022-11-11T10:05:37;4.23;;;1.40;;
16737;SDS011;17906;47.684;10.806;2022-11-11T10:08:10;2.70;;;1.30;;
16737;SDS011;17906;47.684;10.806;2022-11-11T10:10:41;2.23;;;1.37;;
16737;SDS011;17906;47.684;10.806;2022-11-11T10:13:11;4.70;;;1.20;;
16737;SDS011;17906;47.684;10.806;2022-11-11T10:15:40;1.67;;;0.90;;
16737;SDS011;17906;47.684;10.806;2022-11-11T10:18:25;3.37;;;0.80;;
16737;SDS011;17906;47.684;10.806;2022-11-11T10:21:07;1.87;;;1.20;;
16737;SDS011;17906;47.684;10.806;2022-11-11T10:23:40;2.80;;;1.40;;
16737;SDS011;17906;47.684;10.806;2022-11-11T10:26:14;2.93;;;1.50;;
16737;SDS011;17906;47.684;10.806;2022-11-11T10:28:45;2.70;;;1.20;;
16737;SDS011;17906;47.684;10.806;2022-11-11T10:31:15;2.17;;;1.10;;
16737;SDS011;17906;47.684;10.806;2022-11-11T10:33:47;2.70;;;1.00;;
16737;SDS011;17906;47.684;10.806;2022-11-11T10:36:19;1.43;;;0.80;;
16737;SDS011;17906;47.684;10.806;2022-11-11T10:38:49;1.57;;;0.73;;
16737;SDS011;17906;47.684;10.806;2022-11-11T10:41:22;1.43;;;0.67;;
16737;SDS011;17906;47.684;10.806;2022-11-11T10:43:54;1.17;;;0.73;;
16737;SDS011;17906;47.684;10.806;2022-11-11T10:46:25;1.00;;;0.60;;
16737;SDS011;17906;47.684;10.806;2022-11-11T10:48:56;2.73;;;0.63;;
16737;SDS011;17906;47.684;10.806;2022-11-11T10:51:26;0.80;;;0.57;;
16737;SDS011;17906;47.684;10.806;2022-11-11T10:53:58;1.07;;;0.60;;
16737;SDS011;17906;47.684;10.806;2022-11-11T10:56:31;2.13;;;1.10;;
16737;SDS011;17906;47.684;10.806;2022-11-11T10:59:05;1.13;;;0.80;;
16737;SDS011;17906;47.684;10.806;2022-11-11T11:01:40;1.20;;;0.60;;
16737;SDS011;17906;47.684;10.806;2022-11-11T11:04:15;1.00;;;0.70;;
16737;SDS011;17906;47.684;10.806;2022-11-11T11:06:46;1.20;;;0.80;;
16737;SDS011;17906;47.684;10.806;2022-11-11T11:09:16;1.13;;;0.80;;
16737;SDS011;17906;47.684;10.806;2022-11-11T11:11:48;2.00;;;0.90;;
16737;SDS011;17906;47.684;10.806;2022-11-11T11:14:19;1.57;;;0.80;;
16737;SDS011;17906;47.684;10.806;2022-11-11T11:16:52;1.63;;;0.73;;
16737;SDS011;17906;47.684;10.806;2022-11-11T11:19:22;1.83;;;0.97;;
16737;SDS011;17906;47.684;10.806;2022-11-11T11:21:51;2.50;;;0.80;;
16737;SDS011;17906;47.684;10.806;2022-11-11T11:24:20;1.10;;;0.60;;
16737;SDS011;17906;47.684;10.806;2022-11-11T11:26:48;2.07;;;0.90;;
16737;SDS011;17906;47.684;10.806;2022-11-11T11:29:23;1.50;;;1.00;;
16737;SDS011;17906;47.684;10.806;2022-11-11T11:31:51;3.67;;;1.43;;
16737;SDS011;17906;47.684;10.806;2022-11-11T11:34:19;4.40;;;2.03;;
16737;SDS011;17906;47.684;10.806;2022-11-11T11:36:59;2.87;;;1.13;;
16737;SDS011;17906;47.684;10.806;2022-11-11T11:39:33;1.97;;;0.90;;
16737;SDS011;17906;47.684;10.806;2022-11-11T11:42:00;1.73;;;0.90;;
16737;SDS011;17906;47.684;10.806;2022-11-11T11:44:28;2.67;;;0.73;;
16737;SDS011;17906;47.684;10.806;2022-11-11T11:46:59;0.83;;;0.70;;
16737;SDS011;17906;47.684;10.806;2022-11-11T11:49:39;1.30;;;0.90;;
16737;SDS011;17906;47.684;10.806;2022-11-11T11:52:23;2.70;;;1.17;;
16737;SDS011;17906;47.684;10.806;2022-11-11T11:54:59;2.23;;;1.00;;
16737;SDS011;17906;47.684;10.806;2022-11-11T11:57:39;1.57;;;0.80;;
16737;SDS011;17906;47.684;10.806;2022-11-11T12:00:17;1.40;;;1.00;;
16737;SDS011;17906;47.684;10.806;2022-11-11T12:02:56;1.23;;;0.80;;
16737;SDS011;17906;47.684;10.806;2022-11-11T12:05:36;1.60;;;0.90;;
16737;SDS011;17906;47.684;10.806;2022-11-11T12:08:16;2.00;;;1.20;;
16737;SDS011;17906;47.684;10.806;2022-11-11T12:11:00;1.80;;;1.20;;
16737;SDS011;17906;47.684;10.806;2022-11-11T12:13:38;1.43;;;0.90;;
16737;SDS011;17906;47.684;10.806;2022-11-11T12:16:18;2.17;;;1.37;;
16737;SDS011;17906;47.684;10.806;2022-11-11T12:18:54;1.73;;;0.80;;
16737;SDS011;17906;47.684;10.806;2022-11-11T12:21:34;1.27;;;0.70;;
16737;SDS011;17906;47.684;10.806;2022-11-11T12:24:10;1.53;;;0.77;;
16737;SDS011;17906;47.684;10.806;2022-11-11T12:26:48;1.30;;;0.80;;
16737;SDS011;17906;47.684;10.806;2022-11-11T12:29:24;1.10;;;0.80;;
16737;SDS011;17906;47.684;10.806;2022-11-11T12:32:07;1.47;;;0.83;;
16737;SDS011;17906;47.684;10.806;2022-11-11T12:34:59;1.20;;;0.50;;
16737;SDS011;17906;47.684;10.806;2022-11-11T12:37:43;1.30;;;0.80;;
16737;SDS011;17906;47.684;10.806;2022-11-11T12:40:21;1.53;;;1.10;;
16737;SDS011;17906;47.684;10.806;2022-11-11T12:42:55;2.37;;;0.87;;
16737;SDS011;17906;47.684;10.806;2022-11-11T12:45:34;1.47;;;1.00;;
16737;SDS011;17906;47.684;10.806;2022-11-11T12:48:23;1.00;;;0.73;;
16737;SDS011;17906;47.684;10.806;2022-11-11T12:51:02;1.70;;;0.70;;
16737;SDS011;17906;47.684;10.806;2022-11-11T12:53:38;1.40;;;0.70;;
16737;SDS011;17906;47.684;10.806;2022-11-11T12:56:14;0.80;;;0.60;;
16737;SDS011;17906;47.684;10.806;2022-11-11T12:58:51;0.83;;;0.70;;
16737;SDS011;17906;47.684;10.806;2022-11-11T13:01:24;1.00;;;0.70;;
16737;SDS011;17906;47.684;10.806;2022-11-11T13:04:03;1.50;;;0.80;;
16737;SDS011;17906;47.684;10.806;2022-11-11T13:06:52;3.03;;;0.90;;
16737;SDS011;17906;47.684;10.806;2022-11-11T13:09:39;1.40;;;0.90;;
16737;SDS011;17906;47.684;10.806;2022-11-11T13:12:17;1.20;;;0.77;;
16737;SDS011;17906;47.684;10.806;2022-11-11T13:14:53;1.10;;;0.80;;
16737;SDS011;17906;47.684;10.806;2022-11-11T13:17:27;2.50;;;1.00;;
16737;SDS011;17906;47.684;10.806;2022-11-11T13:19:54;1.30;;;0.70;;
16737;SDS011;17906;47.684;10.806;2022-11-11T13:22:24;1.10;;;0.73;;
16737;SDS011;17906;47.684;10.806;2022-11-11T13:24:53;1.53;;;0.70;;
16737;SDS011;17906;47.684;10.806;2022-11-11T13:27:25;1.30;;;0.90;;
16737;SDS011;17906;47.684;10.806;2022-11-11T13:30:01;1.27;;;0.90;;
16737;SDS011;17906;47.684;10.806;2022-11-11T13:32:33;1.33;;;0.80;;
16737;SDS011;17906;47.684;10.806;2022-11-11T13:35:08;1.23;;;0.80;;
16737;SDS011;17906;47.684;10.806;2022-11-11T13:37:43;1.77;;;0.80;;
16737;SDS011;17906;47.684;10.806;2022-11-11T13:40:18;1.47;;;0.80;;
16737;SDS011;17906;47.684;10.806;2022-11-11T13:42:57;2.67;;;0.80;;
16737;SDS011;17906;47.684;10.806;2022-11-11T13:45:26;3.33;;;0.90;;
16737;SDS011;17906;47.684;10.806;2022-11-11T13:47:55;1.57;;;0.97;;
16737;SDS011;17906;47.684;10.806;2022-11-11T13:50:23;3.20;;;1.20;;
16737;SDS011;17906;47.684;10.806;2022-11-11T13:52:55;2.63;;;1.00;;
16737;SDS011;17906;47.684;10.806;2022-11-11T13:55:28;0.97;;;0.60;;
16737;SDS011;17906;47.684;10.806;2022-11-11T13:57:59;0.80;;;0.80;;
16737;SDS011;17906;47.684;10.806;2022-11-11T14:00:27;2.20;;;1.10;;
16737;SDS011;17906;47.684;10.806;2022-11-11T14:08:59;1.63;;;0.90;;
16737;SDS011;17906;47.684;10.806;2022-11-11T14:11:28;1.53;;;0.90;;
16737;SDS011;17906;47.684;10.806;2022-11-11T14:13:58;5.77;;;1.30;;
16737;SDS011;17906;47.684;10.806;2022-11-11T14:17:04;1.77;;;0.97;;
16737;SDS011;17906;47.684;10.806;2022-11-11T14:19:38;1.20;;;0.90;;
16737;SDS011;17906;47.684;10.806;2022-11-11T14:22:26;1.30;;;1.00;;
16737;SDS011;17906;47.684;10.806;2022-11-11T14:24:55;1.93;;;1.00;;
16737;SDS011;17906;47.684;10.806;2022-11-11T14:27:42;2.60;;;0.90;;
16737;SDS011;17906;47.684;10.806;2022-11-11T14:30:25;3.33;;;1.00;;
16737;SDS011;17906;47.684;10.806;2022-11-11T14:32:54;0.90;;;0.77;;
16737;SDS011;17906;47.684;10.806;2022-11-11T14:35:30;1.17;;;0.80;;
16737;SDS011;17906;47.684;10.806;2022-11-11T14:38:19;1.87;;;1.07;;
16737;SDS011;17906;47.684;10.806;2022-11-11T14:40:53;1.63;;;0.90;;
16737;SDS011;17906;47.684;10.806;2022-11-11T14:43:33;1.50;;;0.90;;
16737;SDS011;17906;47.684;10.806;2022-11-11T14:46:09;2.57;;;1.07;;
16737;SDS011;17906;47.684;10.806;2022-11-11T14:48:50;2.93;;;1.70;;
16737;SDS011;17906;47.684;10.806;2022-11-11T14:54:20;2.50;;;1.00;;
16737;SDS011;17906;47.684;10.806;2022-11-11T14:56:54;2.00;;;0.97;;
16737;SDS011;17906;47.684;10.806;2022-11-11T14:59:26;1.43;;;0.87;;
16737;SDS011;17906;47.684;10.806;2022-11-11T15:01:56;1.37;;;0.90;;
16737;SDS011;17906;47.684;10.806;2022-11-11T15:04:25;0.73;;;0.60;;
16737;SDS011;17906;47.684;10.806;2022-11-11T15:06:54;2.93;;;0.80;;
16737;SDS011;17906;47.684;10.806;2022-11-11T15:09:32;1.00;;;0.70;;